createdAt,value
2022-12-23T00:00:17.718Z,1.40
2022-12-23T00:02:46.450Z,1.85
2022-12-23T00:05:14.818Z,1.58
2022-12-23T00:07:44.811Z,1.50
2022-12-23T00:10:13.647Z,1.08
2022-12-23T00:13:10.413Z,1.75
2022-12-23T00:15:39.865Z,1.10
2022-12-23T00:18:08.223Z,1.45
2022-12-23T00:20:36.324Z,1.30
2022-12-23T00:23:07.249Z,0.90
2022-12-23T00:25:44.980Z,1.10
2022-12-23T00:28:14.619Z,0.82
2022-12-23T00:30:48.515Z,1.10
2022-12-23T00:33:18.347Z,0.70
2022-12-23T00:35:47.273Z,0.80
2022-12-23T00:38:15.995Z,1.02
2022-12-23T00:41:02.296Z,0.70
2022-12-23T00:43:30.232Z,0.65
2022-12-23T00:45:59.809Z,0.68
2022-12-23T00:48:45.009Z,0.50
2022-12-23T00:51:12.944Z,0.50
2022-12-23T00:53:41.163Z,0.50
2022-12-23T00:56:09.273Z,0.60
2022-12-23T00:58:37.350Z,0.50
2022-12-23T01:01:24.674Z,0.60
2022-12-23T01:04:10.162Z,0.60
2022-12-23T01:06:38.357Z,0.60
2022-12-23T01:09:06.510Z,0.50
2022-12-23T01:11:34.438Z,0.47
2022-12-23T01:14:02.585Z,0.45
2022-12-23T01:16:32.362Z,0.60
2022-12-23T01:19:00.628Z,0.47
2022-12-23T01:21:28.593Z,0.40
2022-12-23T01:23:56.821Z,0.43
2022-12-23T01:26:24.991Z,0.47
2022-12-23T01:28:54.621Z,0.45
2022-12-23T01:31:23.964Z,0.40
2022-12-23T01:33:53.761Z,0.40
2022-12-23T01:36:22.583Z,0.40
2022-12-23T01:38:51.320Z,0.43
2022-12-23T01:41:34.292Z,0.40
2022-12-23T01:44:02.560Z,0.40
2022-12-23T01:46:30.558Z,0.40
2022-12-23T01:49:00.110Z,0.50
2022-12-23T01:51:46.763Z,0.50
2022-12-23T01:54:14.853Z,0.40
2022-12-23T01:56:43.020Z,0.43
2022-12-23T01:59:35.949Z,0.50
2022-12-23T02:02:22.081Z,0.43
2022-12-23T02:04:52.774Z,0.50
2022-12-23T02:07:56.917Z,0.52
2022-12-23T02:10:32.134Z,0.60
2022-12-23T02:13:08.767Z,0.40
2022-12-23T02:16:00.109Z,0.40
2022-12-23T02:18:43.056Z,0.43
2022-12-23T02:21:31.326Z,0.40
2022-12-23T02:24:58.614Z,0.40
2022-12-23T02:27:31.508Z,0.40
2022-12-23T02:30:27.099Z,0.50
2022-12-23T02:33:28.162Z,0.40
2022-12-23T02:36:05.913Z,0.40
2022-12-23T02:38:45.760Z,0.40
2022-12-23T02:41:20.967Z,0.43
2022-12-23T02:43:55.618Z,0.40
2022-12-23T02:46:33.722Z,0.40
2022-12-23T02:49:07.718Z,0.40
2022-12-23T02:51:42.491Z,0.43
2022-12-23T02:54:14.240Z,0.40
2022-12-23T02:56:47.279Z,0.40
2022-12-23T02:59:18.952Z,0.40
2022-12-23T03:01:50.139Z,0.40
2022-12-23T03:04:27.933Z,0.50
2022-12-23T03:07:02.836Z,0.40
2022-12-23T03:09:48.143Z,0.40
2022-12-23T03:12:28.025Z,0.40
2022-12-23T03:15:17.077Z,0.50
2022-12-23T03:18:01.477Z,0.40
2022-12-23T03:20:40.316Z,0.40
2022-12-23T03:23:41.891Z,0.40
2022-12-23T03:26:15.273Z,0.40
2022-12-23T03:28:50.758Z,0.40
2022-12-23T03:31:25.658Z,0.40
2022-12-23T03:33:59.487Z,0.50
2022-12-23T03:36:33.419Z,0.60
2022-12-23T03:39:04.920Z,0.50
2022-12-23T03:41:40.963Z,0.60
2022-12-23T03:44:14.590Z,0.57
2022-12-23T03:46:47.350Z,0.60
2022-12-23T03:49:21.196Z,0.40
2022-12-23T03:51:53.672Z,0.50
2022-12-23T03:54:27.701Z,0.50
2022-12-23T03:56:59.605Z,0.50
2022-12-23T03:59:31.881Z,0.70
2022-12-23T04:02:07.715Z,0.60
2022-12-23T04:04:52.752Z,0.80
2022-12-23T04:07:24.797Z,0.60
2022-12-23T04:10:05.645Z,0.70
2022-12-23T04:12:34.140Z,0.93
2022-12-23T04:15:04.926Z,0.77
2022-12-23T04:17:37.202Z,1.00
2022-12-23T04:20:08.962Z,0.70
2022-12-23T04:22:37.170Z,0.70
2022-12-23T04:25:05.927Z,0.70
2022-12-23T04:27:34.955Z,0.60
2022-12-23T04:30:02.910Z,0.60
2022-12-23T04:32:56.953Z,0.60
2022-12-23T04:35:26.402Z,0.70
2022-12-23T04:37:54.600Z,0.50
2022-12-23T04:40:22.618Z,0.60
2022-12-23T04:42:50.599Z,0.60
2022-12-23T04:45:18.696Z,0.40
2022-12-23T04:47:46.808Z,0.70
2022-12-23T04:50:15.966Z,0.70
2022-12-23T04:52:47.431Z,0.90
2022-12-23T04:55:15.383Z,0.80
2022-12-23T04:57:43.586Z,0.80
2022-12-23T05:00:12.450Z,0.80
2022-12-23T05:02:40.657Z,0.50
2022-12-23T05:05:09.456Z,0.88
2022-12-23T05:07:43.156Z,0.80
2022-12-23T05:10:13.085Z,0.90
2022-12-23T05:12:41.000Z,0.80
2022-12-23T05:15:10.071Z,1.00
2022-12-23T05:17:37.915Z,0.90
2022-12-23T05:20:06.913Z,1.10
2022-12-23T05:22:34.946Z,0.93
2022-12-23T05:25:02.930Z,0.90
2022-12-23T05:27:37.032Z,1.08
2022-12-23T05:30:05.949Z,0.80
2022-12-23T05:32:34.023Z,0.80
2022-12-23T05:35:01.949Z,0.80
2022-12-23T05:37:29.908Z,0.90
2022-12-23T05:39:58.329Z,1.00
2022-12-23T05:42:26.395Z,0.80
2022-12-23T05:45:30.888Z,0.90
2022-12-23T05:47:58.809Z,0.90
2022-12-23T05:50:26.841Z,1.00
2022-12-23T05:52:55.839Z,0.93
2022-12-23T05:55:23.766Z,0.90
2022-12-23T05:57:52.113Z,0.70
2022-12-23T06:00:20.968Z,0.80
2022-12-23T06:02:53.834Z,0.90
2022-12-23T06:05:23.014Z,1.00
2022-12-23T06:07:50.950Z,0.90
2022-12-23T06:10:19.524Z,1.05
2022-12-23T06:12:47.460Z,0.70
2022-12-23T06:15:15.803Z,0.80
2022-12-23T06:17:44.024Z,0.80
2022-12-23T06:20:20.368Z,0.80
2022-12-23T06:22:49.297Z,1.05
2022-12-23T06:25:17.616Z,0.70
2022-12-23T06:27:45.950Z,0.90
2022-12-23T06:30:14.746Z,0.88
2022-12-23T06:33:02.014Z,0.80
2022-12-23T06:35:47.280Z,1.00
2022-12-23T06:38:15.237Z,1.00
2022-12-23T06:40:43.570Z,0.90
2022-12-23T06:43:13.368Z,0.80
2022-12-23T06:45:41.692Z,0.95
2022-12-23T06:48:09.641Z,0.90
2022-12-23T06:50:37.950Z,1.05
2022-12-23T06:53:07.222Z,0.77
2022-12-23T06:55:35.583Z,0.90
2022-12-23T06:58:23.774Z,1.30
2022-12-23T07:00:51.880Z,1.40
2022-12-23T07:03:20.171Z,0.90
2022-12-23T07:05:48.564Z,0.93
2022-12-23T07:08:18.558Z,0.95
2022-12-23T07:10:46.898Z,0.80
2022-12-23T07:13:14.958Z,0.70
2022-12-23T07:15:42.925Z,0.80
2022-12-23T07:18:11.086Z,0.73
2022-12-23T07:20:39.154Z,0.75
2022-12-23T07:23:07.043Z,1.10
2022-12-23T07:25:36.651Z,1.17
2022-12-23T07:28:04.745Z,1.02
2022-12-23T07:30:32.760Z,0.90
2022-12-23T07:33:00.898Z,1.08
2022-12-23T07:35:29.128Z,0.60
2022-12-23T07:38:30.531Z,0.70
2022-12-23T07:40:59.876Z,0.75
2022-12-23T07:43:28.077Z,0.85
2022-12-23T07:46:00.293Z,0.63
2022-12-23T07:48:28.769Z,0.60
2022-12-23T07:51:01.337Z,1.98
2022-12-23T07:53:29.760Z,0.60
2022-12-23T07:55:59.589Z,0.70
2022-12-23T07:58:27.692Z,0.70
2022-12-23T08:01:00.785Z,0.60
2022-12-23T08:03:28.962Z,0.75
2022-12-23T08:06:01.148Z,0.60
2022-12-23T08:08:31.978Z,0.70
2022-12-23T08:11:04.127Z,0.50
2022-12-23T08:13:33.708Z,0.50
2022-12-23T08:16:02.874Z,0.60
2022-12-23T08:18:32.406Z,0.50
2022-12-23T08:21:01.928Z,0.70
2022-12-23T08:23:33.811Z,0.70
2022-12-23T08:26:05.463Z,0.70
2022-12-23T08:28:34.684Z,0.63
2022-12-23T08:31:08.147Z,0.60
2022-12-23T08:33:38.349Z,0.60
2022-12-23T08:36:08.659Z,0.63
2022-12-23T08:38:37.249Z,0.60
2022-12-23T08:41:09.933Z,0.80
2022-12-23T08:43:37.892Z,0.68
2022-12-23T08:46:07.394Z,0.60
2022-12-23T08:48:36.679Z,0.50
2022-12-23T08:51:06.581Z,0.70
2022-12-23T08:53:35.666Z,0.68
2022-12-23T08:56:05.622Z,0.60
2022-12-23T08:58:37.692Z,0.73
2022-12-23T09:01:22.728Z,0.90
2022-12-23T09:03:51.491Z,0.98
2022-12-23T09:06:28.666Z,1.00
2022-12-23T09:08:58.504Z,0.80
2022-12-23T09:11:28.936Z,0.65
2022-12-23T09:14:00.950Z,0.70
2022-12-23T09:16:30.015Z,1.00
2022-12-23T09:18:58.148Z,0.60
2022-12-23T09:21:26.850Z,0.55
2022-12-23T09:23:54.803Z,0.60
2022-12-23T09:26:25.651Z,0.60
2022-12-23T09:28:54.505Z,0.70
2022-12-23T09:31:26.734Z,0.68
2022-12-23T09:33:57.450Z,0.70
2022-12-23T09:36:25.500Z,0.60
2022-12-23T09:38:57.974Z,0.70
2022-12-23T09:41:39.335Z,1.17
2022-12-23T09:44:23.304Z,0.90
2022-12-23T09:46:57.503Z,0.70
2022-12-23T09:49:25.748Z,1.02
2022-12-23T09:52:00.269Z,1.27
2022-12-23T09:54:30.014Z,0.90
2022-12-23T09:57:01.468Z,0.90
2022-12-23T09:59:50.541Z,0.80
2022-12-23T10:03:10.040Z,0.68
2022-12-23T10:05:51.255Z,0.90
2022-12-23T10:08:27.742Z,0.90
2022-12-23T10:11:01.436Z,0.70
2022-12-23T10:14:18.170Z,0.85
2022-12-23T10:16:50.754Z,1.00
2022-12-23T10:19:26.562Z,1.00
2022-12-23T10:22:01.627Z,0.80
2022-12-23T10:24:34.888Z,1.38
2022-12-23T10:27:07.427Z,1.15
2022-12-23T10:29:35.695Z,1.00
2022-12-23T10:32:18.663Z,1.10
2022-12-23T10:34:58.193Z,1.20
2022-12-23T10:37:35.391Z,1.20
2022-12-23T10:40:17.813Z,0.90
2022-12-23T10:42:50.668Z,1.00
2022-12-23T10:45:30.721Z,1.25
2022-12-23T10:48:15.340Z,0.90
2022-12-23T10:50:56.657Z,1.25
2022-12-23T10:53:33.343Z,0.80
2022-12-23T10:56:01.664Z,0.90
2022-12-23T10:58:30.272Z,0.98
2022-12-23T11:01:00.972Z,1.15
2022-12-23T11:03:32.713Z,1.02
2022-12-23T11:06:03.282Z,1.60
2022-12-23T11:08:32.887Z,1.50
2022-12-23T11:11:01.744Z,1.52
2022-12-23T11:13:37.380Z,1.02
2022-12-23T11:16:18.040Z,1.33
2022-12-23T11:19:04.016Z,1.38
2022-12-23T11:21:35.104Z,0.90
2022-12-23T11:24:18.445Z,1.02
2022-12-23T11:26:48.958Z,1.15
2022-12-23T11:29:23.636Z,1.10
2022-12-23T11:31:52.451Z,1.50
2022-12-23T11:34:23.872Z,1.35
2022-12-23T11:37:00.274Z,1.50
2022-12-23T11:39:35.081Z,1.80
2022-12-23T11:42:08.503Z,1.38
2022-12-23T11:44:41.330Z,1.48
2022-12-23T11:47:25.196Z,1.83
2022-12-23T11:49:55.639Z,1.60
2022-12-23T11:52:27.560Z,1.00
2022-12-23T11:55:24.980Z,1.13
2022-12-23T11:57:53.929Z,1.05
2022-12-23T12:00:26.202Z,1.10
2022-12-23T12:03:04.945Z,1.00
2022-12-23T12:05:36.843Z,0.90
2022-12-23T12:08:32.812Z,1.30
2022-12-23T12:11:05.886Z,0.77
2022-12-23T12:13:39.026Z,0.90
2022-12-23T12:16:20.977Z,0.82
2022-12-23T12:18:55.528Z,1.25
2022-12-23T12:21:26.867Z,1.10
2022-12-23T12:24:17.810Z,0.90
2022-12-23T12:26:51.511Z,0.70
2022-12-23T12:29:28.284Z,0.65
2022-12-23T12:31:59.527Z,0.70
2022-12-23T12:34:38.799Z,0.90
2022-12-23T12:37:17.386Z,0.77
2022-12-23T12:39:53.507Z,0.73
2022-12-23T12:42:28.700Z,0.70
2022-12-23T12:45:06.260Z,0.90
2022-12-23T12:47:57.869Z,0.60
2022-12-23T12:51:02.506Z,0.95
2022-12-23T12:53:33.468Z,0.88
2022-12-23T12:56:09.821Z,0.90
2022-12-23T12:58:38.836Z,0.80
2022-12-23T13:01:23.135Z,0.75
2022-12-23T13:04:08.895Z,0.75
2022-12-23T13:06:44.239Z,0.88
2022-12-23T13:09:24.453Z,0.90
2022-12-23T13:12:03.051Z,1.02
2022-12-23T13:14:43.778Z,0.85
2022-12-23T13:17:21.860Z,0.98
2022-12-23T13:19:56.822Z,1.05
2022-12-23T13:22:29.214Z,1.17
2022-12-23T13:25:01.705Z,1.08
2022-12-23T13:27:38.061Z,0.90
2022-12-23T13:30:14.242Z,1.60
2022-12-23T13:32:57.372Z,1.40
2022-12-23T13:35:36.655Z,0.98
2022-12-23T13:38:19.354Z,0.75
2022-12-23T13:40:58.200Z,1.05
2022-12-23T13:43:37.328Z,0.90
2022-12-23T13:46:15.645Z,1.10
2022-12-23T13:48:53.545Z,1.33
2022-12-23T13:51:31.229Z,1.00
2022-12-23T13:54:06.685Z,0.77
2022-12-23T13:56:42.872Z,0.95
2022-12-23T13:59:17.733Z,1.10
2022-12-23T14:01:48.522Z,0.70
2022-12-23T14:04:36.359Z,0.80
2022-12-23T14:07:18.460Z,0.90
2022-12-23T14:09:52.319Z,0.93
2022-12-23T14:12:26.669Z,1.20
2022-12-23T14:15:21.371Z,1.10
2022-12-23T14:18:04.529Z,1.00
2022-12-23T14:20:44.289Z,1.00
2022-12-23T14:23:28.497Z,1.08
2022-12-23T14:26:08.396Z,1.05
2022-12-23T14:28:49.765Z,1.20
2022-12-23T14:31:41.500Z,1.55
2022-12-23T14:34:28.258Z,1.20
2022-12-23T14:37:30.306Z,1.30
2022-12-23T14:40:50.796Z,1.00
2022-12-23T14:43:33.269Z,1.00
2022-12-23T14:46:04.825Z,1.10
2022-12-23T14:49:38.461Z,0.73
2022-12-23T14:52:49.433Z,0.70
2022-12-23T14:55:49.877Z,0.80
2022-12-23T14:58:35.602Z,0.60
2022-12-23T15:01:10.298Z,0.70
2022-12-23T15:04:20.351Z,0.80
2022-12-23T15:07:07.736Z,1.23
2022-12-23T15:09:39.590Z,0.95
2022-12-23T15:12:14.541Z,0.65
2022-12-23T15:14:48.535Z,0.80
2022-12-23T15:17:18.425Z,1.00
2022-12-23T15:19:48.783Z,1.00
2022-12-23T15:22:24.129Z,0.80
2022-12-23T15:24:58.087Z,0.70
2022-12-23T15:27:28.506Z,0.70
2022-12-23T15:29:58.619Z,0.70
2022-12-23T15:32:28.809Z,1.10
2022-12-23T15:35:05.003Z,1.00
2022-12-23T15:37:33.670Z,0.65
2022-12-23T15:40:13.184Z,1.08
2022-12-23T15:43:02.941Z,0.65
2022-12-23T15:45:34.743Z,0.80
2022-12-23T15:48:04.304Z,0.80
2022-12-23T15:50:41.927Z,0.70
2022-12-23T15:53:11.657Z,0.60
2022-12-23T15:55:41.470Z,0.50
2022-12-23T15:58:16.221Z,0.60
2022-12-23T16:00:52.886Z,0.63
2022-12-23T16:03:27.457Z,0.60
2022-12-23T16:06:08.636Z,0.50
2022-12-23T16:08:36.798Z,0.57
2022-12-23T16:11:13.527Z,0.65
2022-12-23T16:13:47.336Z,0.63
2022-12-23T16:16:21.553Z,0.60
2022-12-23T16:18:49.772Z,1.00
2022-12-23T16:21:19.580Z,0.40
2022-12-23T16:23:51.546Z,0.77
2022-12-23T16:26:20.282Z,0.63
2022-12-23T16:28:51.292Z,0.50
2022-12-23T16:31:21.768Z,0.50
2022-12-23T16:33:52.606Z,0.80
2022-12-23T16:36:34.041Z,0.77
2022-12-23T16:39:13.959Z,0.80
2022-12-23T16:41:42.075Z,0.75
2022-12-23T16:44:10.207Z,0.88
2022-12-23T16:46:41.769Z,0.90
2022-12-23T16:49:16.192Z,0.90
2022-12-23T16:51:46.028Z,0.80
2022-12-23T16:54:16.133Z,0.90
2022-12-23T16:56:50.073Z,0.80
2022-12-23T16:59:18.130Z,0.80
2022-12-23T17:01:48.425Z,1.00
2022-12-23T17:04:16.797Z,0.70
2022-12-23T17:06:47.631Z,0.77
2022-12-23T17:09:15.785Z,0.70
2022-12-23T17:11:46.292Z,0.60
2022-12-23T17:14:17.346Z,0.70
2022-12-23T17:16:45.593Z,0.88
2022-12-23T17:19:13.873Z,1.00
2022-12-23T17:21:44.175Z,1.00
2022-12-23T17:24:31.896Z,0.70
2022-12-23T17:27:13.202Z,1.08
2022-12-23T17:29:41.936Z,0.90
2022-12-23T17:32:12.528Z,0.88
2022-12-23T17:34:41.334Z,0.90
2022-12-23T17:37:14.907Z,0.70
2022-12-23T17:39:45.541Z,1.40
2022-12-23T17:42:23.275Z,1.50
2022-12-23T17:44:53.690Z,1.50
2022-12-23T17:47:23.571Z,2.70
2022-12-23T17:49:52.002Z,1.17
2022-12-23T17:52:24.189Z,1.52
2022-12-23T17:54:53.821Z,1.50
2022-12-23T17:57:23.883Z,2.20
2022-12-23T17:59:54.066Z,2.55
2022-12-23T18:02:24.611Z,0.93
2022-12-23T18:04:53.303Z,1.50
2022-12-23T18:07:21.375Z,0.70
2022-12-23T18:09:50.851Z,0.60
2022-12-23T18:12:28.932Z,0.65
2022-12-23T18:14:57.516Z,0.80
2022-12-23T18:17:25.807Z,0.80
2022-12-23T18:20:24.887Z,0.80
2022-12-23T18:22:55.104Z,0.63
2022-12-23T18:25:24.942Z,0.60
2022-12-23T18:27:55.426Z,0.65
2022-12-23T18:30:23.691Z,0.60
2022-12-23T18:32:52.129Z,0.70
2022-12-23T18:35:30.455Z,0.60
2022-12-23T18:37:59.859Z,0.60
2022-12-23T18:40:33.084Z,0.70
2022-12-23T18:43:03.065Z,0.50
2022-12-23T18:45:35.128Z,1.30
2022-12-23T18:48:04.311Z,0.60
2022-12-23T18:50:33.856Z,0.70
2022-12-23T18:53:02.571Z,0.60
2022-12-23T18:55:31.488Z,0.60
2022-12-23T18:58:01.747Z,0.60
2022-12-23T19:00:33.658Z,0.60
2022-12-23T19:03:01.718Z,0.65
2022-12-23T19:05:33.012Z,0.50
2022-12-23T19:08:01.358Z,0.80
2022-12-23T19:10:34.272Z,0.50
2022-12-23T19:13:03.916Z,0.65
2022-12-23T19:15:33.055Z,0.70
2022-12-23T19:18:01.085Z,0.60
2022-12-23T19:20:29.346Z,0.80
2022-12-23T19:22:57.459Z,0.52
2022-12-23T19:25:25.627Z,0.63
2022-12-23T19:27:53.645Z,0.60
2022-12-23T19:30:23.111Z,0.70
2022-12-23T19:32:53.325Z,1.00
2022-12-23T19:35:21.928Z,0.55
2022-12-23T19:37:49.874Z,0.60
2022-12-23T19:40:18.246Z,0.90
2022-12-23T19:42:46.251Z,0.70
2022-12-23T19:45:14.699Z,0.80
2022-12-23T19:47:45.230Z,0.73
2022-12-23T19:50:13.636Z,0.70
2022-12-23T19:52:41.784Z,0.60
2022-12-23T19:55:11.238Z,0.55
2022-12-23T19:57:39.267Z,0.73
2022-12-23T20:00:09.096Z,0.80
2022-12-23T20:02:47.294Z,0.70
2022-12-23T20:05:15.327Z,0.60
2022-12-23T20:07:43.648Z,0.90
2022-12-23T20:10:12.341Z,0.70
2022-12-23T20:12:40.472Z,0.80
2022-12-23T20:15:10.021Z,0.70
2022-12-23T20:17:38.774Z,0.77
2022-12-23T20:20:09.912Z,0.68
2022-12-23T20:22:38.121Z,0.70
2022-12-23T20:25:07.152Z,0.82
2022-12-23T20:27:36.738Z,0.70
2022-12-23T20:30:05.394Z,0.93
2022-12-23T20:32:33.737Z,1.00
2022-12-23T20:35:01.833Z,0.93
2022-12-23T20:37:32.250Z,1.05
2022-12-23T20:40:00.548Z,1.00
2022-12-23T20:42:28.719Z,0.95
2022-12-23T20:44:56.994Z,1.02
2022-12-23T20:47:25.240Z,0.80
2022-12-23T20:49:54.621Z,0.85
2022-12-23T20:52:22.857Z,0.80
2022-12-23T20:54:56.500Z,1.00
2022-12-23T20:57:26.663Z,0.82
2022-12-23T21:00:01.646Z,0.93
2022-12-23T21:02:29.903Z,1.15
2022-12-23T21:04:58.165Z,1.20
2022-12-23T21:07:26.591Z,1.23
2022-12-23T21:09:56.133Z,1.20
2022-12-23T21:12:24.181Z,1.00
2022-12-23T21:14:52.597Z,1.30
2022-12-23T21:17:23.952Z,1.20
2022-12-23T21:19:52.405Z,1.23
2022-12-23T21:22:20.623Z,1.20
2022-12-23T21:24:48.558Z,1.25
2022-12-23T21:27:18.056Z,1.65
2022-12-23T21:29:54.925Z,2.35
2022-12-23T21:32:22.973Z,1.45
2022-12-23T21:34:51.235Z,1.67
2022-12-23T21:37:19.152Z,1.63
2022-12-23T21:39:47.658Z,1.60
2022-12-23T21:42:17.089Z,1.30
2022-12-23T21:44:46.901Z,2.08
2022-12-23T21:47:15.998Z,1.52
2022-12-23T21:49:44.303Z,1.10
2022-12-23T21:52:12.428Z,1.55
2022-12-23T21:54:40.377Z,1.30
2022-12-23T21:57:08.701Z,1.70
2022-12-23T21:59:38.103Z,1.70
2022-12-23T22:02:06.402Z,1.85
2022-12-23T22:04:34.509Z,1.98
2022-12-23T22:07:02.784Z,1.20
2022-12-23T22:09:32.698Z,2.08
2022-12-23T22:12:01.512Z,1.45
2022-12-23T22:14:29.578Z,1.63
2022-12-23T22:16:59.289Z,1.60
2022-12-23T22:19:27.367Z,1.75
2022-12-23T22:21:55.416Z,1.60
2022-12-23T22:24:23.628Z,1.27
2022-12-23T22:26:51.653Z,1.80
2022-12-23T22:29:19.628Z,1.25
2022-12-23T22:31:49.687Z,1.67
2022-12-23T22:34:21.283Z,1.38
2022-12-23T22:36:50.209Z,2.15
2022-12-23T22:39:22.020Z,1.90
2022-12-23T22:41:50.548Z,1.25
2022-12-23T22:44:19.521Z,1.45
2022-12-23T22:46:47.891Z,1.40
2022-12-23T22:49:17.132Z,1.20
2022-12-23T22:51:47.188Z,2.45
2022-12-23T22:54:15.623Z,1.70
2022-12-23T22:56:45.819Z,1.10
2022-12-23T22:59:21.235Z,2.05
2022-12-23T23:02:18.753Z,1.80
2022-12-23T23:04:46.943Z,1.50
2022-12-23T23:07:16.405Z,1.80
2022-12-23T23:09:45.146Z,2.13
2022-12-23T23:12:13.275Z,1.58
2022-12-23T23:14:53.316Z,1.80
2022-12-23T23:17:24.768Z,1.67
2022-12-23T23:19:53.756Z,1.65
2022-12-23T23:22:25.231Z,2.42
2022-12-23T23:24:53.508Z,1.77
2022-12-23T23:27:21.561Z,1.50
2022-12-23T23:29:49.738Z,1.98
2022-12-23T23:32:17.789Z,2.38
2022-12-23T23:34:45.839Z,2.05
2022-12-23T23:37:15.809Z,2.03
2022-12-23T23:39:45.363Z,1.67
2022-12-23T23:42:16.879Z,2.08
2022-12-23T23:44:45.024Z,1.85
2022-12-23T23:47:12.951Z,1.83
2022-12-23T23:49:41.328Z,1.88
2022-12-23T23:52:09.841Z,1.45
2022-12-23T23:54:38.178Z,1.88
2022-12-23T23:57:11.697Z,1.80
2022-12-23T23:59:39.785Z,1.80
